Time;durP1;ratioP1;P1;durP2;ratioP2;P2;SDS_P1;SDS_P2;PMS_P1;PMS_P2;Temp;Humidity;BMP_temperature;BMP_pressure;BME280_temperature;BME280_humidity;BME280_pressure;Samples;Min_cycle;Max_cycle;Signal;HPM_P1;HPM_P2
2021/08/25 00:02:18;;;;;;;0.47;0.47;;;16.50;99.90;;;;;;5044529;28;20036;-90
2021/08/25 00:04:44;;;;;;;0.10;0.10;;;16.80;99.90;;;;;;5045450;28;20029;-91
2021/08/25 00:07:10;;;;;;;4.20;0.90;;;16.70;99.90;;;;;;5042526;28;20056;-89
2021/08/25 00:09:37;;;;;;;0.10;0.10;;;16.70;99.90;;;;;;5044808;28;20037;-89
2021/08/25 00:12:03;;;;;;;0.20;0.20;;;16.80;99.90;;;;;;5044488;28;20413;-89
2021/08/25 00:14:29;;;;;;;0.08;0.08;;;16.90;99.90;;;;;;5047207;28;20025;-89
2021/08/25 00:16:55;;;;;;;0.97;0.57;;;16.60;99.90;;;;;;5045059;28;20037;-90
2021/08/25 00:19:20;;;;;;;0.10;0.10;;;16.60;99.90;;;;;;5042816;28;20146;-90
2021/08/25 00:21:46;;;;;;;0.20;0.20;;;17.00;99.90;;;;;;5046443;28;20032;-90
2021/08/25 00:24:12;;;;;;;0.10;0.10;;;16.80;99.90;;;;;;5044684;28;20417;-90
2021/08/25 00:26:37;;;;;;;0.07;0.07;;;16.50;99.90;;;;;;5045879;28;20044;-89
2021/08/25 00:29:03;;;;;;;0.10;0.10;;;16.40;99.90;;;;;;5043978;28;20114;-91
2021/08/25 00:31:29;;;;;;;0.10;0.10;;;16.60;99.90;;;;;;5042940;28;20047;-90
2021/08/25 00:33:54;;;;;;;0.00;0.00;;;16.70;99.90;;;;;;5041130;28;20026;-91
2021/08/25 00:36:20;;;;;;;0.30;0.30;;;16.20;99.90;;;;;;5045235;28;20087;-91
2021/08/25 00:38:46;;;;;;;0.67;0.47;;;16.30;99.90;;;;;;5047109;28;20052;-90
2021/08/25 00:41:11;;;;;;;0.10;0.10;;;16.20;99.90;;;;;;5045402;28;20030;-91
2021/08/25 00:43:37;;;;;;;0.20;0.20;;;16.10;99.90;;;;;;5045643;28;20167;-91
2021/08/25 00:46:04;;;;;;;0.20;0.20;;;16.10;99.90;;;;;;5059255;28;20028;-90
2021/08/25 00:48:30;;;;;;;0.20;0.10;;;16.10;99.90;;;;;;5046951;28;20047;-90
2021/08/25 00:50:56;;;;;;;0.53;0.53;;;15.80;99.90;;;;;;5046937;28;20025;-93
2021/08/25 00:53:24;;;;;;;0.30;0.30;;;15.60;99.90;;;;;;5046905;28;20035;-91
2021/08/25 00:55:55;;;;;;;0.22;0.22;;;15.50;99.90;;;;;;5046219;28;20052;-92
2021/08/25 00:58:21;;;;;;;0.20;0.20;;;15.70;99.90;;;;;;5046014;28;20036;-90
2021/08/25 01:01:02;;;;;;;0.15;0.15;;;15.70;99.90;;;;;;5046684;28;20025;-90
2021/08/25 01:04:01;;;;;;;0.10;0.10;;;15.60;99.90;;;;;;5046700;28;20393;-92
2021/08/25 01:06:28;;;;;;;0.10;0.10;;;16.00;99.90;;;;;;5045917;28;20044;-91
2021/08/25 01:08:55;;;;;;;;;;;15.90;99.90;;;;;;5063158;28;20049;-92
2021/08/25 01:11:21;;;;;;;0.43;0.30;;;16.10;99.90;;;;;;5047385;28;20015;-90
2021/08/25 01:13:47;;;;;;;0.13;0.13;;;16.20;99.90;;;;;;5044725;28;20045;-91
2021/08/25 01:16:13;;;;;;;0.10;0.10;;;16.40;99.90;;;;;;5060828;28;20094;-91
2021/08/25 01:18:40;;;;;;;0.10;0.10;;;16.10;99.90;;;;;;5045116;28;20072;-92
2021/08/25 01:21:06;;;;;;;0.10;0.10;;;16.30;99.90;;;;;;5046114;28;20069;-90
2021/08/25 01:23:41;;;;;;;0.15;0.15;;;16.30;99.90;;;;;;5047203;28;20036;-93
2021/08/25 01:26:07;;;;;;;0.10;0.10;;;16.80;99.90;;;;;;5047452;28;20057;-93
2021/08/25 01:28:41;;;;;;;0.30;0.30;;;16.70;99.90;;;;;;5047085;28;20496;-94
2021/08/25 01:31:07;;;;;;;0.47;0.47;;;17.00;99.90;;;;;;5046561;28;20045;-90
2021/08/25 01:33:32;;;;;;;1.20;0.70;;;16.70;99.90;;;;;;5044906;28;20025;-91
2021/08/25 01:35:59;;;;;;;0.33;0.30;;;16.50;99.90;;;;;;5042084;28;20025;-89
2021/08/25 01:38:53;;;;;;;0.10;0.10;;;16.20;99.90;;;;;;5046502;28;20033;-91
2021/08/25 01:41:21;;;;;;;0.20;0.20;;;16.20;99.90;;;;;;5046425;28;20485;-91
2021/08/25 01:43:48;;;;;;;0.10;0.10;;;16.40;99.90;;;;;;5045472;28;20037;-91
2021/08/25 01:46:27;;;;;;;0.10;0.10;;;16.20;99.90;;;;;;5046539;28;20028;-90
2021/08/25 01:48:54;;;;;;;0.15;0.15;;;16.20;99.90;;;;;;5063496;28;20041;-90
2021/08/25 01:51:19;;;;;;;0.30;0.30;;;16.40;99.90;;;;;;5041170;28;20041;-91
2021/08/25 01:53:45;;;;;;;0.10;0.10;;;16.30;99.90;;;;;;5046059;28;20033;-90
2021/08/25 01:56:11;;;;;;;0.37;0.37;;;16.10;99.90;;;;;;5046550;28;20029;-90
2021/08/25 01:58:39;;;;;;;0.20;0.20;;;16.00;99.90;;;;;;5045348;28;20029;-91
2021/08/25 02:01:06;;;;;;;0.10;0.10;;;16.10;99.90;;;;;;5044575;28;20035;-89
2021/08/25 02:03:31;;;;;;;0.65;0.52;;;16.00;99.90;;;;;;5044413;28;20051;-91
2021/08/25 02:05:57;;;;;;;0.23;0.23;;;16.20;99.90;;;;;;5043926;28;20803;-92
2021/08/25 02:08:23;;;;;;;0.23;0.23;;;16.00;99.90;;;;;;5045338;28;20532;-91
2021/08/25 02:10:48;;;;;;;1.20;0.70;;;16.10;99.90;;;;;;5041886;28;20038;-90
2021/08/25 02:13:14;;;;;;;0.10;0.10;;;16.00;99.90;;;;;;5046157;28;20779;-91
2021/08/25 02:15:40;;;;;;;0.10;0.10;;;16.20;99.90;;;;;;5045258;28;20059;-91
2021/08/25 02:18:06;;;;;;;0.57;0.57;;;16.50;99.90;;;;;;5044158;28;20555;-89
2021/08/25 02:20:31;;;;;;;0.10;0.10;;;16.20;99.90;;;;;;5042810;28;20033;-89
2021/08/25 02:22:57;;;;;;;0.00;0.00;;;16.10;99.90;;;;;;5046968;28;20033;-91
2021/08/25 02:25:23;;;;;;;0.30;0.30;;;16.10;99.90;;;;;;5062687;28;20498;-92
2021/08/25 02:27:48;;;;;;;0.77;0.77;;;15.60;99.90;;;;;;5043213;28;20491;-90
2021/08/25 02:30:14;;;;;;;1.00;0.50;;;15.40;99.90;;;;;;5039870;28;20489;-89
2021/08/25 02:32:42;;;;;;;1.20;0.20;;;15.40;99.90;;;;;;5039988;28;20239;-89
2021/08/25 02:35:09;;;;;;;0.65;0.65;;;15.50;99.90;;;;;;5041628;28;20033;-90
2021/08/25 02:37:35;;;;;;;0.20;0.20;;;15.40;99.90;;;;;;5041731;28;20024;-89
2021/08/25 02:40:01;;;;;;;0.13;0.13;;;15.60;99.90;;;;;;5044338;28;20500;-90
2021/08/25 02:42:26;;;;;;;0.10;0.10;;;15.60;99.90;;;;;;5039347;28;20412;-90
2021/08/25 02:44:52;;;;;;;0.57;0.37;;;15.80;99.90;;;;;;5044588;28;20486;-92
2021/08/25 02:47:17;;;;;;;0.20;0.20;;;15.70;99.90;;;;;;5045582;28;20091;-91
2021/08/25 02:49:43;;;;;;;1.17;0.60;;;15.80;99.90;;;;;;5043238;28;20029;-92
2021/08/25 02:52:09;;;;;;;0.30;0.30;;;15.70;99.90;;;;;;5045476;28;20075;-91
2021/08/25 02:54:34;;;;;;;19.27;0.77;;;15.70;99.90;;;;;;5042925;28;20112;-91
2021/08/25 02:57:00;;;;;;;0.67;0.67;;;15.70;99.90;;;;;;5043705;28;20033;-91
2021/08/25 02:59:26;;;;;;;0.20;0.20;;;15.60;99.90;;;;;;5046282;28;20021;-92
2021/08/25 03:01:51;;;;;;;0.50;0.40;;;15.80;99.90;;;;;;5043453;28;20560;-90
2021/08/25 03:04:17;;;;;;;0.10;0.10;;;15.60;99.90;;;;;;5044938;28;20106;-92
2021/08/25 03:06:43;;;;;;;0.70;0.70;;;15.60;99.90;;;;;;5044655;28;20048;-89
2021/08/25 03:09:08;;;;;;;0.20;0.20;;;15.60;99.90;;;;;;5062452;28;20035;-89
2021/08/25 03:11:34;;;;;;;0.10;0.10;;;15.50;99.90;;;;;;5048692;28;20037;-91
2021/08/25 03:14:00;;;;;;;0.30;0.30;;;15.30;99.90;;;;;;5047941;28;20055;-89
2021/08/25 03:16:26;;;;;;;0.90;0.30;;;15.30;99.90;;;;;;5046880;28;20052;-88
2021/08/25 03:18:51;;;;;;;0.20;0.20;;;15.30;99.90;;;;;;5048350;28;20565;-91
2021/08/25 03:21:17;;;;;;;0.30;0.30;;;15.40;99.90;;;;;;5047673;28;20024;-91
2021/08/25 03:23:43;;;;;;;0.20;0.20;;;15.20;99.90;;;;;;5047765;28;20111;-90
2021/08/25 03:26:08;;;;;;;0.30;0.27;;;15.20;99.90;;;;;;5046706;28;20033;-90
2021/08/25 03:28:34;;;;;;;0.10;0.10;;;15.20;99.90;;;;;;5047478;28;20029;-90
2021/08/25 03:31:00;;;;;;;0.10;0.10;;;15.10;99.90;;;;;;5046853;28;20025;-91
2021/08/25 03:33:25;;;;;;;0.30;0.30;;;15.10;99.90;;;;;;5046518;28;20083;-90
2021/08/25 03:35:51;;;;;;;0.40;0.37;;;15.20;99.90;;;;;;5049868;28;20032;-91
2021/08/25 03:38:17;;;;;;;0.30;0.30;;;15.00;99.90;;;;;;5045744;28;20673;-91
2021/08/25 03:40:43;;;;;;;0.10;0.10;;;15.00;99.90;;;;;;5047544;28;20063;-90
2021/08/25 03:43:08;;;;;;;0.10;0.10;;;14.90;99.90;;;;;;5047521;28;20025;-91
2021/08/25 03:45:34;;;;;;;0.30;0.30;;;14.90;99.90;;;;;;5049632;28;20029;-91
2021/08/25 03:48:00;;;;;;;0.20;0.20;;;14.90;99.90;;;;;;5047008;28;20029;-90
2021/08/25 03:50:25;;;;;;;0.37;0.37;;;14.80;99.90;;;;;;5042636;28;20029;-88
2021/08/25 03:52:51;;;;;;;0.23;0.23;;;14.90;99.90;;;;;;5045739;28;20071;-90
2021/08/25 03:55:17;;;;;;;0.10;0.10;;;15.00;99.90;;;;;;5044149;28;20029;-90
2021/08/25 03:57:42;;;;;;;0.10;0.10;;;15.10;99.90;;;;;;5046747;28;20619;-90
2021/08/25 04:00:09;;;;;;;0.10;0.10;;;14.90;99.90;;;;;;5043994;28;20140;-91
2021/08/25 04:02:34;;;;;;;0.00;0.00;;;14.90;99.90;;;;;;5047143;28;20491;-91
2021/08/25 04:05:00;;;;;;;0.67;0.67;;;14.90;99.90;;;;;;5046743;28;20120;-89
2021/08/25 04:07:26;;;;;;;0.10;0.10;;;14.80;99.90;;;;;;5044507;28;20057;-89
2021/08/25 04:09:51;;;;;;;0.20;0.20;;;14.80;99.90;;;;;;5046908;28;20025;-90
2021/08/25 04:12:17;;;;;;;1.13;0.70;;;14.70;99.90;;;;;;5046705;28;20065;-90
2021/08/25 04:14:43;;;;;;;0.40;0.40;;;14.70;99.90;;;;;;5048583;28;20063;-92
2021/08/25 04:17:08;;;;;;;0.10;0.10;;;14.90;99.90;;;;;;5047791;28;20025;-92
2021/08/25 04:19:34;;;;;;;0.10;0.10;;;14.80;99.90;;;;;;5049939;28;20438;-93
2021/08/25 04:22:00;;;;;;;0.22;0.22;;;14.70;99.90;;;;;;5051827;28;20032;-93
2021/08/25 04:24:26;;;;;;;0.27;0.27;;;14.70;99.90;;;;;;5049559;28;20037;-93
2021/08/25 04:26:53;;;;;;;0.10;0.10;;;14.60;99.90;;;;;;5047782;28;20033;-92
2021/08/25 04:29:18;;;;;;;0.10;0.10;;;14.60;99.90;;;;;;5051331;28;20040;-92
2021/08/25 04:31:44;;;;;;;0.37;0.37;;;14.70;99.90;;;;;;5047811;28;20040;-91
2021/08/25 04:34:10;;;;;;;0.23;0.23;;;14.60;99.90;;;;;;5047300;28;20068;-91
2021/08/25 04:36:36;;;;;;;24.90;1.07;;;14.40;99.90;;;;;;5047828;28;20028;-92
2021/08/25 04:39:03;;;;;;;0.40;0.40;;;14.50;99.90;;;;;;5046089;28;20442;-92
2021/08/25 04:41:29;;;;;;;0.22;0.22;;;14.40;99.90;;;;;;5046251;28;20746;-91
2021/08/25 04:43:55;;;;;;;0.10;0.10;;;14.50;99.90;;;;;;5045927;28;20063;-91
2021/08/25 04:46:21;;;;;;;7.80;1.48;;;14.50;99.90;;;;;;5046075;28;20059;-91
2021/08/25 04:48:46;;;;;;;0.20;0.20;;;14.40;99.90;;;;;;5059609;28;20033;-92
2021/08/25 04:51:12;;;;;;;0.10;0.10;;;14.50;99.90;;;;;;5047593;28;20094;-91
2021/08/25 04:53:39;;;;;;;0.20;0.20;;;14.50;99.90;;;;;;5064971;28;20071;-91
2021/08/25 04:56:05;;;;;;;0.10;0.10;;;14.60;99.90;;;;;;5047267;28;20477;-93
2021/08/25 04:58:34;;;;;;;0.13;0.13;;;14.50;99.90;;;;;;5046148;28;20511;-93
2021/08/25 05:01:00;;;;;;;0.10;0.10;;;14.40;99.90;;;;;;5049690;28;20099;-94
2021/08/25 05:03:26;;;;;;;0.10;0.10;;;14.40;99.90;;;;;;5050982;28;20037;-94
2021/08/25 05:05:52;;;;;;;0.10;0.10;;;14.40;99.90;;;;;;5068542;28;20120;-94
2021/08/25 05:08:18;;;;;;;0.20;0.20;;;14.50;99.90;;;;;;5048731;28;20076;-94
2021/08/25 05:10:50;;;;;;;0.20;0.20;;;14.40;99.90;;;;;;5056550;28;20025;-95
2021/08/25 05:13:16;;;;;;;0.20;0.20;;;14.40;99.90;;;;;;5057008;28;20595;-93
2021/08/25 05:15:45;;;;;;;0.50;0.50;;;14.30;99.90;;;;;;5048382;28;20664;-94
2021/08/25 05:18:11;;;;;;;0.10;0.10;;;14.20;99.90;;;;;;5047977;28;20048;-93
2021/08/25 05:20:37;;;;;;;0.20;0.20;;;14.30;99.90;;;;;;5044829;28;20112;-83
2021/08/25 05:23:03;;;;;;;0.10;0.10;;;14.80;99.90;;;;;;5053945;28;20040;-82
2021/08/25 05:25:29;;;;;;;0.10;0.10;;;14.90;99.90;;;;;;5040062;28;20584;-82
2021/08/25 05:27:55;;;;;;;0.20;0.20;;;14.90;99.90;;;;;;5039560;28;20025;-87
2021/08/25 05:30:21;;;;;;;0.20;0.20;;;14.70;99.90;;;;;;5039451;28;20284;-86
2021/08/25 05:32:51;;;;;;;0.23;0.23;;;14.90;99.90;;;;;;5042598;28;20029;-86
2021/08/25 05:35:19;;;;;;;0.10;0.10;;;15.40;99.90;;;;;;5041759;28;20060;-86
2021/08/25 05:37:45;;;;;;;0.10;0.10;;;15.00;99.90;;;;;;5040503;28;20055;-84
2021/08/25 05:40:11;;;;;;;0.40;0.30;;;14.60;99.90;;;;;;5041286;28;20470;-86
2021/08/25 05:42:37;;;;;;;0.55;0.55;;;14.70;99.90;;;;;;5040027;28;20120;-86
2021/08/25 05:45:03;;;;;;;0.10;0.10;;;14.80;99.90;;;;;;5042204;28;20120;-84
2021/08/25 05:47:30;;;;;;;0.35;0.35;;;14.80;99.90;;;;;;5043833;28;20032;-85
2021/08/25 05:49:55;;;;;;;0.30;0.30;;;14.80;99.90;;;;;;5040411;28;20040;-83
2021/08/25 05:52:21;;;;;;;0.23;0.23;;;14.70;99.90;;;;;;5041359;28;20041;-93
2021/08/25 05:54:47;;;;;;;0.53;0.53;;;14.80;99.90;;;;;;5041114;28;20066;-91
2021/08/25 05:57:13;;;;;;;0.27;0.27;;;15.00;99.90;;;;;;5048284;28;20481;-92
2021/08/25 05:59:42;;;;;;;0.20;0.20;;;15.10;99.90;;;;;;5062548;28;20024;-95
2021/08/25 06:02:08;;;;;;;0.10;0.10;;;15.20;99.90;;;;;;5041514;28;20041;-94
2021/08/25 06:04:34;;;;;;;0.17;0.17;;;15.20;99.90;;;;;;5049161;28;20478;-94
2021/08/25 06:06:59;;;;;;;0.00;0.00;;;15.30;99.90;;;;;;5051075;28;20037;-93
2021/08/25 06:09:25;;;;;;;0.50;0.50;;;15.40;99.90;;;;;;5057031;28;20099;-92
2021/08/25 06:11:51;;;;;;;0.30;0.30;;;15.70;99.90;;;;;;5048891;28;20056;-94
2021/08/25 06:14:16;;;;;;;0.43;0.43;;;15.60;99.90;;;;;;5032838;28;20060;-89
2021/08/25 06:16:43;;;;;;;0.10;0.10;;;15.80;99.90;;;;;;5038161;28;20056;-93
2021/08/25 06:19:09;;;;;;;0.13;0.13;;;15.70;99.90;;;;;;5041923;28;20017;-94
2021/08/25 06:21:35;;;;;;;0.50;0.30;;;15.70;99.90;;;;;;5062799;28;20095;-93
2021/08/25 06:24:01;;;;;;;0.43;0.43;;;15.80;99.90;;;;;;5045592;28;20033;-93
2021/08/25 06:26:27;;;;;;;0.03;0.03;;;16.00;99.90;;;;;;5041154;28;20029;-94
2021/08/25 06:28:53;;;;;;;0.20;0.20;;;15.80;99.90;;;;;;5061749;28;20043;-93
2021/08/25 06:31:18;;;;;;;0.20;0.20;;;16.10;99.90;;;;;;5058086;28;20027;-92
2021/08/25 06:33:44;;;;;;;0.30;0.30;;;16.10;99.90;;;;;;5059574;28;20041;-92
2021/08/25 06:36:10;;;;;;;0.20;0.20;;;16.10;99.90;;;;;;5043594;28;20053;-91
2021/08/25 06:38:35;;;;;;;0.23;0.23;;;16.30;99.90;;;;;;5044547;28;20029;-92
2021/08/25 06:41:01;;;;;;;0.33;0.33;;;16.00;99.90;;;;;;5034210;28;20025;-92
2021/08/25 06:43:27;;;;;;;1.40;0.30;;;16.30;99.90;;;;;;5037431;28;20040;-90
2021/08/25 06:45:52;;;;;;;0.33;0.33;;;16.40;99.90;;;;;;5043129;28;20028;-91
2021/08/25 06:48:18;;;;;;;2.37;0.93;;;16.50;99.90;;;;;;5034277;28;20040;-93
2021/08/25 06:50:44;;;;;;;0.10;0.10;;;16.50;99.90;;;;;;5048900;28;20029;-93
2021/08/25 06:53:09;;;;;;;0.10;0.10;;;16.50;99.90;;;;;;5040549;28;20642;-91
2021/08/25 06:55:35;;;;;;;0.20;0.20;;;16.60;99.90;;;;;;5041543;28;20477;-90
2021/08/25 06:58:01;;;;;;;0.20;0.20;;;16.90;99.90;;;;;;5042650;28;20474;-93
2021/08/25 07:00:26;;;;;;;4.30;1.67;;;16.90;99.90;;;;;;5039914;28;20026;-93
2021/08/25 07:02:52;;;;;;;0.10;0.10;;;17.20;99.90;;;;;;5038214;28;20017;-90
2021/08/25 07:05:18;;;;;;;0.10;0.10;;;17.40;99.90;;;;;;5042538;28;20409;-89
2021/08/25 07:07:43;;;;;;;0.53;0.53;;;17.20;99.90;;;;;;5035393;28;20057;-91
2021/08/25 07:10:10;;;;;;;0.10;0.10;;;17.30;99.90;;;;;;5039822;28;20120;-91
2021/08/25 07:12:35;;;;;;;0.22;0.22;;;17.80;99.90;;;;;;5033933;28;20037;-90
2021/08/25 07:15:01;;;;;;;0.10;0.10;;;17.60;99.90;;;;;;5037675;28;20036;-90
2021/08/25 07:17:27;;;;;;;0.00;0.00;;;19.90;99.90;;;;;;5050519;28;20045;-90
2021/08/25 07:19:52;;;;;;;0.20;0.20;;;21.40;99.90;;;;;;5031406;28;20025;-91
2021/08/25 07:22:18;;;;;;;0.20;0.20;;;22.60;98.60;;;;;;5029123;28;20021;-91
2021/08/25 07:24:44;;;;;;;0.10;0.10;;;23.60;95.40;;;;;;5032968;28;20033;-90
2021/08/25 07:27:10;;;;;;;0.00;0.00;;;23.50;94.30;;;;;;5030994;28;20041;-89
2021/08/25 07:29:36;;;;;;;0.13;0.13;;;23.80;93.20;;;;;;5028866;28;20026;-90
2021/08/25 07:32:02;;;;;;;0.70;0.70;;;25.60;91.70;;;;;;5037004;28;20044;-88
2021/08/25 07:34:28;;;;;;;6.93;1.55;;;24.90;91.60;;;;;;5030689;28;20096;-91
2021/08/25 07:36:54;;;;;;;0.17;0.17;;;25.00;90.40;;;;;;5026353;28;20545;-92
2021/08/25 07:39:20;;;;;;;0.85;0.32;;;24.90;88.10;;;;;;5043201;28;20061;-90
2021/08/25 07:41:46;;;;;;;0.10;0.10;;;25.70;85.50;;;;;;5056930;28;20033;-91
2021/08/25 07:44:12;;;;;;;0.13;0.13;;;27.80;75.90;;;;;;5046064;28;20036;-90
2021/08/25 07:46:37;;;;;;;0.22;0.22;;;27.00;79.20;;;;;;5037480;28;20039;-89
2021/08/25 07:49:05;;;;;;;0.00;0.00;;;26.20;76.70;;;;;;5039764;28;20444;-90
2021/08/25 07:51:34;;;;;;;0.00;0.00;;;26.90;77.60;;;;;;5040698;28;20568;-90
2021/08/25 07:54:01;;;;;;;0.13;0.13;;;27.90;73.50;;;;;;5057584;28;20505;-89
2021/08/25 07:56:26;;;;;;;0.10;0.10;;;27.70;72.50;;;;;;5038100;28;20108;-90
2021/08/25 07:58:52;;;;;;;0.10;0.10;;;26.40;74.60;;;;;;5035445;28;20116;-90
2021/08/25 08:01:18;;;;;;;0.35;0.35;;;27.50;69.30;;;;;;5042272;28;20040;-90
2021/08/25 08:03:44;;;;;;;0.30;0.30;;;29.90;66.20;;;;;;5042671;28;20083;-89
2021/08/25 08:06:09;;;;;;;0.10;0.00;;;29.10;62.10;;;;;;5029253;28;20284;-89
2021/08/25 08:08:36;;;;;;;4.38;1.00;;;28.40;64.10;;;;;;5042096;28;20049;-90
2021/08/25 08:11:01;;;;;;;;;;;27.20;64.10;;;;;;5035017;28;20132;-89
2021/08/25 08:13:27;;;;;;;0.77;0.65;;;28.50;63.70;;;;;;5064972;28;20007;-90
2021/08/25 08:15:53;;;;;;;0.10;0.10;;;29.20;59.30;;;;;;5041110;28;20087;-91
2021/08/25 08:18:30;;;;;;;0.08;0.08;;;28.80;56.80;;;;;;5029445;28;20062;-90
2021/08/25 08:20:56;;;;;;;0.32;0.10;;;27.80;58.60;;;;;;5043284;28;20626;-89
2021/08/25 08:23:21;;;;;;;0.00;0.00;;;29.60;56.40;;;;;;5035977;28;20125;-91
2021/08/25 08:25:47;;;;;;;0.30;0.30;;;28.30;58.10;;;;;;5038645;28;20869;-90
2021/08/25 08:28:13;;;;;;;0.00;0.00;;;29.10;52.90;;;;;;5038079;28;20494;-91
2021/08/25 08:30:39;;;;;;;0.30;0.20;;;29.90;55.70;;;;;;5072144;28;20025;-89
2021/08/25 08:33:04;;;;;;;0.00;0.00;;;28.90;53.70;;;;;;5040450;28;20048;-89
2021/08/25 08:35:33;;;;;;;0.10;0.10;;;29.60;49.10;;;;;;5042585;28;20140;-88
2021/08/25 08:38:01;;;;;;;0.10;0.10;;;29.10;52.90;;;;;;5035951;28;20088;-90
2021/08/25 08:40:27;;;;;;;0.00;0.00;;;31.80;49.80;;;;;;5032812;28;20099;-89
2021/08/25 08:42:53;;;;;;;0.00;0.00;;;32.40;45.50;;;;;;5055194;28;20497;-89
2021/08/25 08:45:20;;;;;;;0.08;0.08;;;29.60;48.70;;;;;;5027310;28;20068;-89
2021/08/25 08:47:46;;;;;;;0.10;0.10;;;29.20;47.90;;;;;;5040787;28;20028;-89
2021/08/25 08:50:12;;;;;;;0.00;0.00;;;31.20;46.30;;;;;;5042690;28;20530;-90
2021/08/25 08:52:38;;;;;;;0.00;0.00;;;31.90;48.40;;;;;;5051255;28;20046;-90
2021/08/25 08:55:05;;;;;;;1.10;0.22;;;32.10;40.30;;;;;;5031980;28;20059;-89
2021/08/25 08:57:30;;;;;;;0.38;0.20;;;31.40;43.00;;;;;;5043765;28;20071;-90
2021/08/25 09:00:00;;;;;;;0.00;0.00;;;31.80;36.80;;;;;;5029073;28;20054;-90
2021/08/25 09:02:43;;;;;;;0.57;0.30;;;32.10;40.20;;;;;;5058210;28;20102;-90
2021/08/25 09:05:22;;;;;;;0.47;0.20;;;33.20;36.70;;;;;;5041317;28;20037;-89
2021/08/25 09:07:50;;;;;;;0.00;0.00;;;33.30;32.30;;;;;;5039916;28;20049;-89
2021/08/25 09:10:34;;;;;;;0.00;0.00;;;32.20;37.20;;;;;;5049376;28;20036;-89
2021/08/25 09:13:00;;;;;;;0.10;0.10;;;32.90;38.10;;;;;;5053913;28;20037;-89
2021/08/25 09:15:29;;;;;;;1.02;0.55;;;33.90;33.10;;;;;;5057951;28;20028;-89
2021/08/25 09:18:01;;;;;;;0.00;0.00;;;34.60;27.80;;;;;;5041145;28;20028;-90
2021/08/25 09:20:29;;;;;;;1.52;0.75;;;34.40;24.60;;;;;;5041895;28;20489;-91
2021/08/25 09:23:18;;;;;;;0.10;0.10;;;35.50;28.70;;;;;;5036310;28;20084;-90
2021/08/25 09:25:49;;;;;;;0.10;0.10;;;36.80;23.50;;;;;;5030290;28;20032;-91
2021/08/25 09:28:18;;;;;;;0.10;0.10;;;32.70;42.10;;;;;;5027843;28;20060;-89
2021/08/25 09:30:53;;;;;;;1.00;0.70;;;36.10;23.70;;;;;;5027097;28;20083;-89
2021/08/25 09:33:23;;;;;;;0.30;0.30;;;36.70;25.00;;;;;;5042271;28;20041;-89
2021/08/25 09:35:49;;;;;;;0.00;0.00;;;34.80;24.10;;;;;;5025340;28;20479;-88
2021/08/25 09:38:17;;;;;;;0.20;0.15;;;37.00;21.90;;;;;;5038904;28;20041;-89
2021/08/25 09:40:55;;;;;;;0.00;0.00;;;37.00;20.40;;;;;;5039350;28;20037;-90
2021/08/25 09:43:28;;;;;;;0.00;0.00;;;37.00;19.70;;;;;;5036491;28;20025;-88
2021/08/25 09:46:04;;;;;;;1.35;0.43;;;34.50;19.50;;;;;;5038049;28;20041;-92
2021/08/25 09:48:39;;;;;;;0.00;0.00;;;34.60;20.80;;;;;;5040211;28;20053;-91
2021/08/25 09:51:05;;;;;;;0.08;0.08;;;37.50;18.40;;;;;;5038367;28;20041;-91
2021/08/25 09:53:31;;;;;;;0.10;0.10;;;36.00;18.70;;;;;;5042428;28;20045;-91
2021/08/25 09:55:57;;;;;;;0.00;0.00;;;35.40;21.60;;;;;;5036603;28;20025;-91
2021/08/25 09:58:24;;;;;;;0.08;0.08;;;36.00;17.20;;;;;;5038585;28;20026;-91
2021/08/25 10:00:53;;;;;;;0.15;0.15;;;34.20;18.00;;;;;;5042497;28;20067;-90
2021/08/25 10:03:19;;;;;;;0.00;0.00;;;36.50;23.50;;;;;;5044046;28;20033;-90
2021/08/25 10:05:47;;;;;;;0.50;0.25;;;36.70;15.50;;;;;;5040669;28;20528;-91
2021/08/25 10:08:15;;;;;;;0.08;0.08;;;37.40;12.60;;;;;;5040501;28;20498;-90
2021/08/25 10:10:41;;;;;;;0.40;0.32;;;39.00;14.70;;;;;;5034206;28;20103;-91
2021/08/25 10:13:07;;;;;;;0.10;0.10;;;38.90;13.40;;;;;;5032312;28;20067;-92
2021/08/25 10:15:34;;;;;;;0.13;0.13;;;37.90;9.60;;;;;;5026981;28;20042;-92
2021/08/25 10:18:23;;;;;;;0.08;0.08;;;37.80;9.70;;;;;;5035360;28;20030;-90
2021/08/25 10:20:49;;;;;;;0.28;0.20;;;38.40;9.50;;;;;;5033538;28;20383;-92
2021/08/25 10:23:15;;;;;;;0.15;0.15;;;38.00;11.90;;;;;;5036731;28;20680;-91
2021/08/25 10:26:09;;;;;;;0.10;0.10;;;36.40;14.90;;;;;;5029438;28;20045;-91
2021/08/25 10:28:56;;;;;;;0.30;0.00;;;37.10;9.60;;;;;;5037318;28;20021;-91
2021/08/25 10:31:22;;;;;;;0.00;0.00;;;38.00;9.20;;;;;;5054961;28;20827;-91
2021/08/25 10:34:13;;;;;;;0.10;0.10;;;36.30;13.00;;;;;;5038922;28;20525;-91
2021/08/25 10:36:39;;;;;;;0.20;0.10;;;34.20;17.80;;;;;;5040024;28;20280;-91
2021/08/25 10:39:35;;;;;;;0.15;0.15;;;35.60;17.10;;;;;;5039361;28;20027;-92
2021/08/25 10:42:02;;;;;;;0.93;0.77;;;36.20;14.50;;;;;;5034051;28;20041;-91
2021/08/25 10:44:37;;;;;;;0.40;0.10;;;36.60;12.70;;;;;;5036374;28;20033;-91
2021/08/25 10:47:04;;;;;;;0.22;0.10;;;32.70;20.10;;;;;;5039836;28;20056;-91
2021/08/25 10:49:33;;;;;;;0.35;0.30;;;33.30;22.60;;;;;;5042377;28;20029;-91
2021/08/25 10:52:29;;;;;;;0.00;0.00;;;32.40;24.50;;;;;;5039441;28;20072;-92
2021/08/25 10:54:55;;;;;;;0.10;0.10;;;30.00;30.00;;;;;;5040736;28;20502;-94
2021/08/25 10:57:23;;;;;;;0.32;0.32;;;29.60;31.30;;;;;;5040882;28;20458;-93
2021/08/25 10:59:49;;;;;;;0.00;0.00;;;29.50;30.60;;;;;;5047530;28;20036;-92
2021/08/25 11:02:15;;;;;;;0.00;0.00;;;29.60;30.20;;;;;;5035286;28;20033;-94
2021/08/25 11:04:41;;;;;;;0.10;0.10;;;28.60;32.00;;;;;;5046316;28;20021;-92
2021/08/25 11:07:13;;;;;;;0.10;0.10;;;28.50;34.40;;;;;;5063023;28;20556;-92
2021/08/25 11:09:47;;;;;;;0.00;0.00;;;28.50;33.70;;;;;;5041639;28;20124;-93
2021/08/25 11:12:14;;;;;;;0.15;0.15;;;28.60;35.10;;;;;;5041500;28;20518;-92
2021/08/25 11:14:40;;;;;;;0.30;0.30;;;28.40;36.90;;;;;;5040524;28;20433;-92
2021/08/25 11:17:28;;;;;;;0.32;0.32;;;28.00;35.90;;;;;;5038051;28;20029;-91
2021/08/25 11:19:57;;;;;;;1.17;0.20;;;28.10;37.90;;;;;;5036750;28;20051;-90
2021/08/25 11:22:26;;;;;;;0.00;0.00;;;28.10;35.80;;;;;;5035216;28;20033;-91
2021/08/25 11:24:54;;;;;;;0.10;0.10;;;27.70;37.90;;;;;;5039722;28;20029;-91
2021/08/25 11:27:30;;;;;;;0.00;0.00;;;27.10;37.20;;;;;;5040037;28;20029;-91
2021/08/25 11:30:16;;;;;;;0.38;0.20;;;26.60;40.00;;;;;;5048897;28;20064;-89
2021/08/25 11:32:54;;;;;;;;;;;26.60;41.20;;;;;;5030782;28;20042;-89
2021/08/25 11:35:30;;;;;;;0.10;0.10;;;26.50;40.40;;;;;;5040443;28;19912;-88
2021/08/25 11:38:18;;;;;;;0.10;0.10;;;26.50;41.10;;;;;;5040418;28;20902;-90
2021/08/25 11:40:46;;;;;;;0.88;0.25;;;25.60;41.80;;;;;;5041456;28;20037;-89
2021/08/25 11:43:14;;;;;;;0.00;0.00;;;26.30;43.70;;;;;;5043278;28;20037;-90
2021/08/25 11:45:43;;;;;;;0.10;0.10;;;26.70;42.40;;;;;;5043218;28;20307;-90
2021/08/25 11:48:09;;;;;;;0.08;0.08;;;26.70;43.60;;;;;;5043120;28;20597;-90
2021/08/25 11:50:38;;;;;;;0.88;0.38;;;26.80;55.80;;;;;;5043376;28;20074;-89
2021/08/25 11:53:15;;;;;;;0.00;0.00;;;26.70;43.70;;;;;;5055656;28;20505;-90
2021/08/25 11:55:41;;;;;;;0.00;0.00;;;26.60;43.40;;;;;;5035471;28;20087;-89
2021/08/25 11:58:27;;;;;;;0.20;0.20;;;26.70;44.10;;;;;;5031325;28;20402;-89
2021/08/25 12:00:58;;;;;;;0.10;0.10;;;26.80;45.20;;;;;;5035452;28;20551;-88
2021/08/25 12:03:43;;;;;;;0.03;0.00;;;26.80;45.40;;;;;;5031260;28;20843;-91
2021/08/25 12:06:10;;;;;;;0.00;0.00;;;26.00;44.00;;;;;;5040597;28;20033;-90
2021/08/25 12:08:43;;;;;;;0.22;0.20;;;26.20;44.00;;;;;;5049908;28;20468;-90
2021/08/25 12:11:10;;;;;;;0.43;0.10;;;26.30;44.80;;;;;;5031948;28;20067;-90
2021/08/25 12:13:46;;;;;;;1.35;0.30;;;25.90;45.90;;;;;;5037523;28;20084;-91
2021/08/25 12:16:26;;;;;;;0.03;0.03;;;26.50;45.80;;;;;;5050920;28;20048;-88
2021/08/25 12:18:59;;;;;;;0.00;0.00;;;26.20;45.30;;;;;;5056548;28;20060;-88
2021/08/25 12:21:32;;;;;;;0.00;0.00;;;26.00;45.10;;;;;;5031877;28;20102;-91
2021/08/25 12:24:06;;;;;;;0.00;0.00;;;25.90;45.00;;;;;;5059010;28;20036;-91
2021/08/25 12:26:34;;;;;;;0.00;0.00;;;25.70;45.80;;;;;;5049130;28;20547;-90
2021/08/25 12:29:01;;;;;;;0.10;0.10;;;26.10;46.10;;;;;;5030792;28;20041;-91
2021/08/25 12:31:30;;;;;;;0.38;0.10;;;26.00;45.50;;;;;;5030970;28;20091;-90
2021/08/25 12:34:14;;;;;;;0.00;0.00;;;25.80;46.90;;;;;;5042870;28;20057;-91
2021/08/25 12:36:52;;;;;;;0.20;0.10;;;25.70;45.80;;;;;;5029427;28;20026;-90
2021/08/25 12:39:24;;;;;;;0.25;0.20;;;26.00;45.80;;;;;;5028147;28;20033;-91
2021/08/25 12:41:51;;;;;;;0.20;0.08;;;26.30;47.20;;;;;;5042005;28;20618;-90
2021/08/25 12:44:18;;;;;;;0.30;0.10;;;26.40;47.20;;;;;;5041391;28;20028;-91
2021/08/25 12:47:04;;;;;;;0.00;0.00;;;26.30;45.80;;;;;;5041134;28;20177;-91
2021/08/25 12:49:34;;;;;;;0.10;0.10;;;26.00;58.00;;;;;;5038799;28;20030;-91
2021/08/25 12:52:01;;;;;;;0.00;0.00;;;26.10;47.10;;;;;;5035764;28;20071;-91
2021/08/25 12:54:28;;;;;;;0.00;0.00;;;25.80;47.50;;;;;;5040696;28;20523;-92